createdAt,value
2023-04-14T00:02:05.156Z,90.15
2023-04-14T00:04:35.318Z,90.17
2023-04-14T00:07:05.198Z,90.07
2023-04-14T00:09:35.132Z,90.03
2023-04-14T00:12:09.084Z,90.10
2023-04-14T00:14:45.867Z,89.98
2023-04-14T00:17:15.870Z,89.95
2023-04-14T00:19:45.757Z,89.97
2023-04-14T00:22:15.717Z,89.83
2023-04-14T00:24:49.071Z,89.88
2023-04-14T00:27:18.897Z,89.84
2023-04-14T00:29:51.460Z,89.91
2023-04-14T00:32:21.649Z,89.93
2023-04-14T00:34:51.700Z,89.96
2023-04-14T00:37:21.735Z,89.92
2023-04-14T00:39:51.861Z,89.92
2023-04-14T00:42:21.789Z,89.90
2023-04-14T00:44:54.254Z,89.80
2023-04-14T00:47:26.986Z,89.84
2023-04-14T00:49:56.900Z,89.87
2023-04-14T00:52:29.347Z,89.71
2023-04-14T00:54:59.380Z,89.78
2023-04-14T00:57:30.218Z,89.86
2023-04-14T01:00:05.346Z,89.75
2023-04-14T01:02:36.146Z,89.63
2023-04-14T01:05:06.874Z,89.67
2023-04-14T01:07:37.232Z,89.66
2023-04-14T01:10:08.823Z,89.62
2023-04-14T01:12:58.326Z,89.76
2023-04-14T01:15:37.049Z,89.66
2023-04-14T01:18:13.928Z,89.62
2023-04-14T01:20:45.248Z,89.61
2023-04-14T01:23:18.932Z,89.61
2023-04-14T01:26:08.365Z,89.63
2023-04-14T01:28:51.417Z,89.64
2023-04-14T01:31:30.033Z,89.60
2023-04-14T01:34:07.068Z,89.63
2023-04-14T01:36:43.532Z,89.61
2023-04-14T01:39:19.320Z,89.63
2023-04-14T01:41:52.585Z,89.75
2023-04-14T01:44:24.722Z,89.73
2023-04-14T01:47:05.282Z,89.88
2023-04-14T01:49:38.379Z,89.88
2023-04-14T01:52:11.301Z,89.99
2023-04-14T01:54:44.055Z,89.94
2023-04-14T01:57:15.976Z,90.07
2023-04-14T01:59:48.380Z,90.19
2023-04-14T02:02:25.439Z,90.18
2023-04-14T02:04:57.666Z,90.15
2023-04-14T02:07:29.497Z,90.18
2023-04-14T02:10:01.624Z,90.22
2023-04-14T02:12:33.768Z,90.22
2023-04-14T02:15:04.809Z,90.23
2023-04-14T02:17:37.876Z,90.22
2023-04-14T02:20:10.558Z,90.25
2023-04-14T02:22:40.532Z,90.32
2023-04-14T02:25:11.629Z,90.38
2023-04-14T02:27:49.234Z,90.34
2023-04-14T02:30:24.664Z,90.43
2023-04-14T02:33:06.160Z,90.57
2023-04-14T02:35:43.949Z,90.64
2023-04-14T02:38:22.488Z,90.68
2023-04-14T02:40:54.175Z,90.73
2023-04-14T02:43:31.779Z,90.80
2023-04-14T02:46:04.550Z,90.79
2023-04-14T02:48:39.100Z,90.94
2023-04-14T02:51:11.616Z,90.96
2023-04-14T02:53:42.074Z,90.84
2023-04-14T02:56:14.616Z,90.80
2023-04-14T02:58:45.126Z,90.82
2023-04-14T03:01:16.444Z,90.81
2023-04-14T03:03:49.127Z,90.71
2023-04-14T03:06:19.532Z,90.81
2023-04-14T03:08:51.183Z,90.81
2023-04-14T03:11:21.757Z,90.77
2023-04-14T03:13:55.430Z,90.66
2023-04-14T03:16:29.969Z,90.82
2023-04-14T03:19:04.686Z,90.75
2023-04-14T03:21:34.785Z,90.82
2023-04-14T03:24:08.612Z,90.78
2023-04-14T03:26:40.730Z,90.84
2023-04-14T03:29:12.297Z,90.80
2023-04-14T03:31:44.465Z,90.90
2023-04-14T03:34:19.221Z,90.81
2023-04-14T03:36:51.665Z,90.85
2023-04-14T03:39:23.225Z,90.96
2023-04-14T03:41:54.969Z,91.02
2023-04-14T03:44:26.743Z,91.18
2023-04-14T03:46:57.472Z,91.13
2023-04-14T03:49:33.397Z,91.24
2023-04-14T03:52:11.849Z,91.25
2023-04-14T03:54:44.659Z,91.31
2023-04-14T03:57:18.100Z,91.54
2023-04-14T03:59:50.972Z,91.63
2023-04-14T04:02:24.046Z,91.71
2023-04-14T04:04:58.567Z,91.81
2023-04-14T04:07:30.095Z,91.82
2023-04-14T04:10:03.406Z,91.87
2023-04-14T04:12:36.000Z,91.96
2023-04-14T04:15:05.860Z,92.02
2023-04-14T04:17:36.140Z,91.92
2023-04-14T04:20:11.838Z,92.07
2023-04-14T04:22:45.184Z,92.06
2023-04-14T04:25:16.028Z,91.96
2023-04-14T04:27:46.161Z,92.02
2023-04-14T04:30:17.792Z,91.84
2023-04-14T04:32:47.722Z,91.94
2023-04-14T04:35:21.789Z,92.00
2023-04-14T04:37:52.348Z,92.06
2023-04-14T04:40:22.516Z,92.02
2023-04-14T04:42:54.965Z,92.13
2023-04-14T04:45:47.152Z,91.92
2023-04-14T04:48:17.143Z,91.99
2023-04-14T04:50:49.686Z,91.96
2023-04-14T04:53:19.849Z,91.99
2023-04-14T04:55:49.764Z,91.80
2023-04-14T04:58:19.721Z,91.91
2023-04-14T05:00:49.865Z,92.01
2023-04-14T05:03:21.114Z,91.97
2023-04-14T05:05:53.599Z,92.12
2023-04-14T05:08:23.621Z,92.24
2023-04-14T05:10:54.939Z,92.31
2023-04-14T05:13:25.060Z,92.53
2023-04-14T05:15:54.983Z,92.76
2023-04-14T05:18:24.842Z,92.91
2023-04-14T05:20:57.308Z,93.02
2023-04-14T05:23:27.162Z,93.14
2023-04-14T05:26:11.264Z,93.18
2023-04-14T05:28:48.825Z,93.06
2023-04-14T05:31:18.949Z,93.12
2023-04-14T05:33:48.811Z,93.04
2023-04-14T05:36:21.745Z,92.88
2023-04-14T05:38:54.326Z,92.90
2023-04-14T05:41:24.135Z,93.01
2023-04-14T05:43:54.115Z,92.96
2023-04-14T05:46:24.131Z,93.05
2023-04-14T05:48:54.003Z,93.05
2023-04-14T05:51:27.950Z,93.00
2023-04-14T05:53:58.182Z,92.98
2023-04-14T05:56:28.484Z,92.94
2023-04-14T05:58:58.298Z,93.06
2023-04-14T06:01:28.138Z,93.11
2023-04-14T06:03:58.145Z,93.17
2023-04-14T06:06:34.969Z,93.36
2023-04-14T06:09:04.759Z,93.57
2023-04-14T06:11:34.949Z,93.77
2023-04-14T06:14:05.740Z,93.84
2023-04-14T06:16:35.660Z,93.96
2023-04-14T06:19:06.307Z,93.98
2023-04-14T06:21:38.834Z,93.96
2023-04-14T06:24:09.229Z,94.04
2023-04-14T06:26:41.222Z,93.94
2023-04-14T06:29:13.701Z,93.91
2023-04-14T06:31:43.817Z,93.95
2023-04-14T06:34:13.699Z,93.87
2023-04-14T06:36:46.331Z,93.72
2023-04-14T06:39:20.220Z,93.58
2023-04-14T06:41:50.139Z,93.53
2023-04-14T06:44:22.369Z,93.27
2023-04-14T06:46:52.225Z,93.21
2023-04-14T06:49:24.189Z,93.16
2023-04-14T06:51:56.617Z,93.24
2023-04-14T06:54:27.238Z,93.16
2023-04-14T06:56:58.500Z,93.14
2023-04-14T06:59:31.287Z,92.92
2023-04-14T07:02:01.659Z,92.80
2023-04-14T07:04:31.870Z,92.42
2023-04-14T07:07:08.270Z,92.26
2023-04-14T07:09:38.115Z,91.80
2023-04-14T07:12:08.724Z,91.27
2023-04-14T07:14:38.560Z,91.05
2023-04-14T07:17:09.920Z,90.51
2023-04-14T07:19:39.772Z,90.14
2023-04-14T07:22:12.223Z,89.57
2023-04-14T07:24:42.281Z,89.20
2023-04-14T07:27:15.766Z,88.59
2023-04-14T07:29:45.936Z,88.13
2023-04-14T07:32:16.186Z,87.65
2023-04-14T07:34:46.057Z,87.12
2023-04-14T07:37:19.185Z,86.48
2023-04-14T07:39:57.121Z,86.05
2023-04-14T07:42:27.828Z,85.54
2023-04-14T07:44:57.719Z,84.97
2023-04-14T07:47:27.664Z,84.63
2023-04-14T07:49:58.614Z,84.06
2023-04-14T07:52:31.159Z,83.61
2023-04-14T07:55:00.978Z,83.00
2023-04-14T07:57:30.808Z,82.57
2023-04-14T08:00:00.647Z,82.08
2023-04-14T08:02:30.728Z,81.49
2023-04-14T08:05:00.927Z,81.13
2023-04-14T08:07:33.550Z,80.67
2023-04-14T08:10:03.749Z,80.20
2023-04-14T08:12:33.633Z,79.99
2023-04-14T08:15:05.040Z,79.45
2023-04-14T08:17:34.964Z,79.10
2023-04-14T08:20:05.101Z,78.66
2023-04-14T08:22:38.220Z,78.15
2023-04-14T08:25:12.945Z,77.57
2023-04-14T08:27:42.769Z,77.15
2023-04-14T08:30:14.186Z,76.79
2023-04-14T08:32:44.043Z,76.40
2023-04-14T08:35:35.317Z,76.03
2023-04-14T08:38:06.345Z,75.72
2023-04-14T08:40:40.072Z,75.35
2023-04-14T08:43:12.461Z,74.96
2023-04-14T08:45:45.405Z,74.61
2023-04-14T08:48:17.749Z,74.46
2023-04-14T08:51:01.839Z,74.02
2023-04-14T08:53:35.568Z,73.72
2023-04-14T08:56:09.634Z,73.55
2023-04-14T08:58:39.582Z,73.06
2023-04-14T09:01:13.631Z,72.86
2023-04-14T09:03:44.235Z,72.24
2023-04-14T09:06:16.075Z,71.99
2023-04-14T09:08:48.487Z,71.75
2023-04-14T09:11:21.278Z,71.63
2023-04-14T09:13:52.706Z,71.18
2023-04-14T09:16:22.843Z,70.74
2023-04-14T09:18:52.727Z,70.80
2023-04-14T09:21:31.185Z,70.60
2023-04-14T09:24:17.173Z,70.51
2023-04-14T09:26:47.058Z,70.35
2023-04-14T09:29:17.013Z,70.21
2023-04-14T09:31:49.939Z,69.99
2023-04-14T09:34:21.267Z,69.68
2023-04-14T09:37:06.438Z,69.35
2023-04-14T09:39:52.665Z,69.22
2023-04-14T09:42:22.985Z,68.87
2023-04-14T09:44:57.110Z,68.72
2023-04-14T09:47:27.827Z,68.36
2023-04-14T09:50:03.636Z,68.18
2023-04-14T09:52:44.934Z,68.01
2023-04-14T09:55:18.912Z,67.66
2023-04-14T09:57:52.049Z,67.73
2023-04-14T10:00:24.749Z,67.78
2023-04-14T10:02:58.551Z,67.73
2023-04-14T10:05:33.760Z,67.02
2023-04-14T10:08:05.661Z,67.09
2023-04-14T10:10:38.106Z,66.93
2023-04-14T10:13:07.934Z,66.71
2023-04-14T10:15:38.712Z,66.73
2023-04-14T10:18:08.974Z,66.51
2023-04-14T10:20:40.148Z,66.25
2023-04-14T10:23:09.991Z,66.34
2023-04-14T10:25:42.691Z,66.29
2023-04-14T10:28:12.688Z,66.33
2023-04-14T10:30:44.525Z,66.25
2023-04-14T10:33:14.703Z,66.22
2023-04-14T10:35:48.117Z,66.18
2023-04-14T10:38:18.064Z,66.11
2023-04-14T10:40:57.177Z,66.11
2023-04-14T10:43:30.970Z,65.85
2023-04-14T10:46:05.507Z,65.72
2023-04-14T10:48:36.526Z,65.83
2023-04-14T10:51:09.271Z,65.84
2023-04-14T10:53:41.114Z,65.94
2023-04-14T10:56:13.783Z,66.21
2023-04-14T10:58:43.751Z,66.21
2023-04-14T11:01:32.301Z,66.50
2023-04-14T11:04:21.033Z,66.72
2023-04-14T11:06:58.129Z,66.94
2023-04-14T11:09:29.353Z,67.21
2023-04-14T11:12:07.126Z,67.55
2023-04-14T11:14:38.918Z,67.34
2023-04-14T11:17:11.847Z,67.41
2023-04-14T11:19:43.120Z,67.43
2023-04-14T11:22:12.942Z,67.56
2023-04-14T11:24:43.766Z,67.50
2023-04-14T11:27:18.198Z,67.79
2023-04-14T11:29:52.322Z,67.73
2023-04-14T11:32:22.277Z,67.70
2023-04-14T11:34:52.451Z,67.60
2023-04-14T11:37:22.983Z,67.45
2023-04-14T11:39:58.062Z,67.29
2023-04-14T11:42:34.631Z,67.04
2023-04-14T11:45:06.982Z,66.83
2023-04-14T11:47:36.910Z,66.84
2023-04-14T11:50:07.818Z,66.47
2023-04-14T11:52:49.230Z,66.28
2023-04-14T11:55:34.091Z,66.08
2023-04-14T12:44:24.241Z,65.69
2023-04-14T12:46:56.036Z,65.74
2023-04-14T12:49:36.553Z,65.68
2023-04-14T12:52:09.241Z,65.59
2023-04-14T12:54:52.350Z,65.15
2023-04-14T12:57:23.523Z,64.71
2023-04-14T12:59:55.925Z,64.52
2023-04-14T13:02:26.261Z,64.39
2023-04-14T13:04:57.268Z,64.26
2023-04-14T13:07:27.302Z,64.48
2023-04-14T13:09:57.220Z,64.90
2023-04-14T13:12:27.343Z,64.90
2023-04-14T13:15:03.406Z,64.52
2023-04-14T13:17:33.426Z,64.08
2023-04-14T13:20:04.025Z,63.59
2023-04-14T13:22:33.916Z,63.44
2023-04-14T13:25:04.529Z,63.06
2023-04-14T13:27:34.348Z,63.03
2023-04-14T13:30:08.034Z,62.88
2023-04-14T13:32:37.912Z,63.09
2023-04-14T13:35:10.998Z,63.19
2023-04-14T13:37:41.444Z,63.22
2023-04-14T13:40:15.781Z,63.37
2023-04-14T13:42:45.911Z,63.37
2023-04-14T13:45:21.170Z,63.23
2023-04-14T13:47:52.280Z,63.26
2023-04-14T13:50:25.101Z,63.07
2023-04-14T13:52:55.006Z,62.94
2023-04-14T13:55:26.465Z,62.99
2023-04-14T13:57:58.254Z,62.99
2023-04-14T14:00:31.293Z,62.70
2023-04-14T14:03:01.358Z,62.64
2023-04-14T14:05:31.810Z,62.33
2023-04-14T14:08:03.759Z,62.49
2023-04-14T14:32:20.212Z,62.60
2023-04-14T14:34:50.299Z,62.74
2023-04-14T14:37:21.523Z,62.50
2023-04-14T14:39:51.569Z,61.97
2023-04-14T14:42:22.126Z,61.80
2023-04-14T14:45:01.042Z,61.69
2023-04-14T14:53:15.830Z,61.46
2023-04-14T15:02:03.488Z,60.89
2023-04-14T15:04:36.813Z,61.04
2023-04-14T15:13:41.424Z,60.01
2023-04-14T15:16:11.351Z,60.71
2023-04-14T15:18:56.290Z,61.50
2023-04-14T15:21:26.459Z,62.08
2023-04-14T15:58:28.499Z,66.74
2023-04-14T16:01:01.698Z,66.73
2023-04-14T16:03:31.802Z,67.00
2023-04-14T16:06:07.048Z,67.02
2023-04-14T16:08:37.426Z,67.03
2023-04-14T16:11:09.653Z,66.94
2023-04-14T16:13:44.206Z,67.05
2023-04-14T16:16:15.950Z,66.85
2023-04-14T16:18:45.819Z,66.82
2023-04-14T16:21:15.864Z,66.92
2023-04-14T16:23:45.760Z,67.00
2023-04-14T16:26:16.641Z,67.05
2023-04-14T16:28:49.136Z,67.06
2023-04-14T16:31:19.121Z,67.19
2023-04-14T16:33:48.929Z,67.06
2023-04-14T16:36:20.126Z,67.08
2023-04-14T16:38:51.183Z,66.82
2023-04-14T16:41:21.549Z,66.65
2023-04-14T16:43:54.138Z,66.89
2023-04-14T16:46:26.219Z,67.16
2023-04-14T16:48:56.307Z,67.32
2023-04-14T16:51:27.154Z,67.70
2023-04-14T16:53:57.110Z,67.71
2023-04-14T16:56:26.972Z,67.77
2023-04-14T16:58:59.801Z,67.94
2023-04-14T17:01:29.972Z,67.76
2023-04-14T17:04:00.055Z,67.43
2023-04-14T17:06:30.368Z,67.19
2023-04-14T17:09:00.887Z,66.64
2023-04-14T17:11:30.690Z,66.13
2023-04-14T17:14:03.389Z,65.95
2023-04-14T17:16:33.511Z,65.66
2023-04-14T17:19:05.368Z,65.67
2023-04-14T17:21:35.440Z,65.51
2023-04-14T17:24:06.703Z,65.55
2023-04-14T17:26:36.814Z,65.39
2023-04-14T17:29:09.532Z,65.45
2023-04-14T17:31:49.195Z,65.54
2023-04-14T17:34:20.829Z,65.51
2023-04-14T17:36:50.992Z,65.98
2023-04-14T17:39:26.944Z,66.64
2023-04-14T17:41:58.326Z,67.21
2023-04-14T17:44:34.896Z,67.72
2023-04-14T17:47:12.964Z,68.07
2023-04-14T17:49:43.035Z,68.65
2023-04-14T17:52:13.793Z,68.99
2023-04-14T17:54:43.724Z,69.25
2023-04-14T17:57:16.014Z,69.36
2023-04-14T17:59:48.795Z,69.47
2023-04-14T18:02:19.671Z,69.49
2023-04-14T18:04:49.701Z,69.46
2023-04-14T18:07:19.769Z,69.54
2023-04-14T18:09:49.769Z,69.78
2023-04-14T18:12:22.960Z,69.93
2023-04-14T18:14:56.156Z,70.13
2023-04-14T18:17:26.223Z,70.48
2023-04-14T18:19:59.212Z,70.78
2023-04-14T18:22:32.988Z,70.92
2023-04-14T18:25:02.906Z,70.76
2023-04-14T18:30:11.451Z,71.79
2023-04-14T18:32:41.691Z,72.63
2023-04-14T18:35:18.642Z,73.40
2023-04-14T18:37:48.666Z,74.15
2023-04-14T18:40:19.210Z,74.83
2023-04-14T18:46:53.696Z,76.36
2023-04-14T18:50:09.534Z,77.01
2023-04-14T18:52:42.069Z,77.83
2023-04-14T18:55:12.618Z,78.30
2023-04-14T18:57:42.997Z,78.79
2023-04-14T19:11:03.880Z,81.10
2023-04-14T19:13:33.827Z,81.47
2023-04-14T19:16:14.366Z,81.95
2023-04-14T19:18:44.935Z,82.15
2023-04-14T19:21:14.932Z,82.43
2023-04-14T19:23:45.838Z,82.74
2023-04-14T19:26:19.685Z,83.10
2023-04-14T19:28:58.994Z,83.45
2023-04-14T19:31:30.585Z,83.63
2023-04-14T19:34:00.932Z,83.94
2023-04-14T19:36:35.557Z,84.21
2023-04-14T19:39:05.387Z,84.43
2023-04-14T19:41:53.792Z,84.76
2023-04-14T19:44:25.026Z,84.91
2023-04-14T19:47:00.347Z,85.10
2023-04-14T19:49:32.098Z,85.32
2023-04-14T19:52:07.743Z,85.47
2023-04-14T19:54:43.098Z,85.69
2023-04-14T19:57:15.769Z,85.78
2023-04-14T19:59:49.077Z,85.97
2023-04-14T20:02:20.326Z,86.08
2023-04-14T20:04:50.698Z,86.26
2023-04-14T20:07:22.168Z,86.53
2023-04-14T20:10:09.154Z,86.54
2023-04-14T20:12:41.592Z,86.75
2023-04-14T20:15:15.195Z,86.88
2023-04-14T20:17:47.632Z,87.01
2023-04-14T20:20:21.237Z,87.17
2023-04-14T20:22:52.724Z,87.29
2023-04-14T20:25:25.670Z,87.41
2023-04-14T20:27:58.710Z,87.45
2023-04-14T20:33:05.904Z,87.70
2023-04-14T20:35:43.707Z,87.73
2023-04-14T20:38:15.434Z,87.80
2023-04-14T20:40:46.977Z,87.78
2023-04-14T20:43:37.248Z,87.84
2023-04-14T20:46:12.728Z,87.90
2023-04-14T20:51:54.144Z,87.85
2023-04-14T20:54:36.113Z,88.11
2023-04-14T20:57:18.322Z,88.01
2023-04-14T20:59:53.233Z,88.08
2023-04-14T21:02:26.361Z,88.14
2023-04-14T21:04:56.760Z,88.21
2023-04-14T21:07:33.376Z,88.34
2023-04-14T21:10:03.209Z,88.35
2023-04-14T21:12:35.443Z,88.29
2023-04-14T21:15:28.977Z,88.38
2023-04-14T21:18:06.358Z,88.48
2023-04-14T21:20:36.196Z,88.49
2023-04-14T21:23:06.101Z,88.65
2023-04-14T21:25:36.064Z,88.60
2023-04-14T21:28:05.882Z,88.81
2023-04-14T21:30:39.078Z,88.81
2023-04-14T21:33:09.091Z,88.86
2023-04-14T21:35:39.008Z,88.94
2023-04-14T21:38:11.515Z,88.92
2023-04-14T21:40:41.408Z,89.00
2023-04-14T21:43:11.239Z,89.07
2023-04-14T21:45:46.070Z,89.13
2023-04-14T21:48:19.344Z,89.09
2023-04-14T21:50:52.176Z,89.11
2023-04-14T21:53:23.022Z,89.23
2023-04-14T21:56:07.580Z,89.18
2023-04-14T21:58:43.317Z,89.29
2023-04-14T22:01:23.364Z,89.18
2023-04-14T22:04:01.553Z,89.30
2023-04-14T22:06:31.951Z,89.22
2023-04-14T22:09:03.028Z,89.21
2023-04-14T22:11:42.191Z,89.36
2023-04-14T22:14:19.402Z,89.39
2023-04-14T22:16:51.830Z,89.41
2023-04-14T22:19:25.218Z,89.38
2023-04-14T22:22:00.931Z,89.39
2023-04-14T22:24:32.368Z,89.44
2023-04-14T22:27:05.679Z,89.51
2023-04-14T22:29:35.504Z,89.53
2023-04-14T22:32:11.846Z,89.53
2023-04-14T22:34:41.926Z,89.51
2023-04-14T22:37:11.776Z,89.57
2023-04-14T22:42:16.837Z,89.60
2023-04-14T22:44:56.253Z,89.60
2023-04-14T22:47:33.911Z,89.70
2023-04-14T22:59:17.223Z,89.74
2023-04-14T23:01:49.655Z,89.72
2023-04-14T23:07:17.365Z,89.81
2023-04-14T23:09:51.265Z,89.89
2023-04-14T23:12:21.089Z,89.91
2023-04-14T23:14:50.893Z,89.94
2023-04-14T23:17:24.547Z,90.11
2023-04-14T23:19:54.373Z,90.15
2023-04-14T23:22:26.935Z,90.21
2023-04-14T23:25:04.984Z,90.36
2023-04-14T23:27:43.288Z,90.30
2023-04-14T23:30:17.846Z,90.50
2023-04-14T23:32:47.734Z,90.53
2023-04-14T23:35:18.900Z,90.67
2023-04-14T23:37:56.782Z,90.75
2023-04-14T23:40:27.478Z,90.87
2023-04-14T23:42:59.152Z,91.00
2023-04-14T23:52:27.538Z,91.33
2023-04-14T23:55:17.238Z,91.50
